sensor_id;sensor_type;location;lat;lon;timestamp;temperature;humidity
27164;DHT22;14685;50.618;7.024;2023-12-28T00:00:17;10.40;99.90
27164;DHT22;14685;50.618;7.024;2023-12-28T00:02:46;10.40;99.90
27164;DHT22;14685;50.618;7.024;2023-12-28T00:05:13;10.40;99.90
27164;DHT22;14685;50.618;7.024;2023-12-28T00:07:40;10.30;99.90
27164;DHT22;14685;50.618;7.024;2023-12-28T00:10:07;10.30;99.90
27164;DHT22;14685;50.618;7.024;2023-12-28T00:12:34;10.30;99.90
27164;DHT22;14685;50.618;7.024;2023-12-28T00:15:01;10.30;99.90
27164;DHT22;14685;50.618;7.024;2023-12-28T00:17:28;10.20;99.90
27164;DHT22;14685;50.618;7.024;2023-12-28T00:19:56;10.20;99.90
27164;DHT22;14685;50.618;7.024;2023-12-28T00:22:24;10.20;99.90
27164;DHT22;14685;50.618;7.024;2023-12-28T00:24:52;10.20;99.90
27164;DHT22;14685;50.618;7.024;2023-12-28T00:27:19;10.10;99.90
27164;DHT22;14685;50.618;7.024;2023-12-28T00:29:46;10.10;99.90
27164;DHT22;14685;50.618;7.024;2023-12-28T00:32:14;10.10;99.90
27164;DHT22;14685;50.618;7.024;2023-12-28T00:34:42;10.10;99.90
27164;DHT22;14685;50.618;7.024;2023-12-28T00:37:09;10.10;99.90
27164;DHT22;14685;50.618;7.024;2023-12-28T00:39:36;10.10;99.90
27164;DHT22;14685;50.618;7.024;2023-12-28T00:42:04;10.00;99.90
27164;DHT22;14685;50.618;7.024;2023-12-28T00:44:31;10.00;99.90
27164;DHT22;14685;50.618;7.024;2023-12-28T00:46:58;10.00;99.90
27164;DHT22;14685;50.618;7.024;2023-12-28T00:49:25;10.00;99.90
27164;DHT22;14685;50.618;7.024;2023-12-28T00:51:53;9.90;99.90
27164;DHT22;14685;50.618;7.024;2023-12-28T00:54:21;9.90;99.90
27164;DHT22;14685;50.618;7.024;2023-12-28T00:56:48;9.90;99.90
27164;DHT22;14685;50.618;7.024;2023-12-28T00:59:15;9.90;99.90
27164;DHT22;14685;50.618;7.024;2023-12-28T01:01:42;9.80;99.90
27164;DHT22;14685;50.618;7.024;2023-12-28T01:04:10;9.90;99.90
27164;DHT22;14685;50.618;7.024;2023-12-28T01:06:38;9.80;99.90
27164;DHT22;14685;50.618;7.024;2023-12-28T01:09:06;9.80;99.90
27164;DHT22;14685;50.618;7.024;2023-12-28T01:11:33;9.90;99.90
27164;DHT22;14685;50.618;7.024;2023-12-28T01:14:00;9.90;99.90
27164;DHT22;14685;50.618;7.024;2023-12-28T01:16:27;9.80;99.90
27164;DHT22;14685;50.618;7.024;2023-12-28T01:18:54;9.80;99.90
27164;DHT22;14685;50.618;7.024;2023-12-28T01:21:24;9.80;99.90
27164;DHT22;14685;50.618;7.024;2023-12-28T01:23:55;9.80;99.90
27164;DHT22;14685;50.618;7.024;2023-12-28T01:26:22;9.80;99.90
27164;DHT22;14685;50.618;7.024;2023-12-28T01:28:49;9.80;99.90
27164;DHT22;14685;50.618;7.024;2023-12-28T01:31:17;9.80;99.90
27164;DHT22;14685;50.618;7.024;2023-12-28T01:33:45;9.80;99.90
27164;DHT22;14685;50.618;7.024;2023-12-28T01:36:19;9.80;99.90
27164;DHT22;14685;50.618;7.024;2023-12-28T01:38:46;9.80;99.90
27164;DHT22;14685;50.618;7.024;2023-12-28T01:41:14;9.70;99.90
27164;DHT22;14685;50.618;7.024;2023-12-28T01:43:42;9.70;99.90
27164;DHT22;14685;50.618;7.024;2023-12-28T01:46:13;9.70;99.90
27164;DHT22;14685;50.618;7.024;2023-12-28T01:48:44;9.70;99.90
27164;DHT22;14685;50.618;7.024;2023-12-28T01:51:12;9.70;99.90
27164;DHT22;14685;50.618;7.024;2023-12-28T01:53:41;9.70;99.90
27164;DHT22;14685;50.618;7.024;2023-12-28T01:56:09;9.70;99.90
27164;DHT22;14685;50.618;7.024;2023-12-28T01:58:37;9.70;99.90
27164;DHT22;14685;50.618;7.024;2023-12-28T02:01:07;9.70;99.90
27164;DHT22;14685;50.618;7.024;2023-12-28T02:03:34;9.70;99.90
27164;DHT22;14685;50.618;7.024;2023-12-28T02:06:03;9.80;99.90
27164;DHT22;14685;50.618;7.024;2023-12-28T02:08:31;9.80;99.90
27164;DHT22;14685;50.618;7.024;2023-12-28T02:10:58;9.70;99.90
27164;DHT22;14685;50.618;7.024;2023-12-28T02:13:25;9.80;99.90
27164;DHT22;14685;50.618;7.024;2023-12-28T02:16:23;9.80;99.90
27164;DHT22;14685;50.618;7.024;2023-12-28T02:18:50;9.80;99.90
27164;DHT22;14685;50.618;7.024;2023-12-28T02:21:20;9.90;99.90
27164;DHT22;14685;50.618;7.024;2023-12-28T02:23:49;9.90;99.90
27164;DHT22;14685;50.618;7.024;2023-12-28T02:26:17;9.90;99.90
27164;DHT22;14685;50.618;7.024;2023-12-28T02:28:47;10.00;99.90
27164;DHT22;14685;50.618;7.024;2023-12-28T02:31:25;9.90;99.90
27164;DHT22;14685;50.618;7.024;2023-12-28T02:34:09;9.90;99.90
27164;DHT22;14685;50.618;7.024;2023-12-28T02:36:41;10.00;99.90
27164;DHT22;14685;50.618;7.024;2023-12-28T02:39:11;10.00;99.90
27164;DHT22;14685;50.618;7.024;2023-12-28T02:41:40;10.10;99.90
27164;DHT22;14685;50.618;7.024;2023-12-28T02:44:07;10.10;99.90
27164;DHT22;14685;50.618;7.024;2023-12-28T02:46:34;10.10;99.90
27164;DHT22;14685;50.618;7.024;2023-12-28T02:49:01;10.10;99.90
27164;DHT22;14685;50.618;7.024;2023-12-28T02:51:29;10.10;99.90
27164;DHT22;14685;50.618;7.024;2023-12-28T02:53:56;10.10;99.90
27164;DHT22;14685;50.618;7.024;2023-12-28T02:56:23;10.10;99.90
27164;DHT22;14685;50.618;7.024;2023-12-28T02:58:50;10.10;99.90
27164;DHT22;14685;50.618;7.024;2023-12-28T03:01:17;10.20;99.90
27164;DHT22;14685;50.618;7.024;2023-12-28T03:03:44;10.20;99.90
27164;DHT22;14685;50.618;7.024;2023-12-28T03:06:11;10.30;99.90
27164;DHT22;14685;50.618;7.024;2023-12-28T03:08:38;10.30;99.90
27164;DHT22;14685;50.618;7.024;2023-12-28T03:11:08;10.30;99.90
27164;DHT22;14685;50.618;7.024;2023-12-28T03:13:36;10.30;99.90
27164;DHT22;14685;50.618;7.024;2023-12-28T03:16:03;10.30;99.90
27164;DHT22;14685;50.618;7.024;2023-12-28T03:18:30;10.20;99.90
27164;DHT22;14685;50.618;7.024;2023-12-28T03:20:59;10.20;99.90
27164;DHT22;14685;50.618;7.024;2023-12-28T03:23:26;10.20;99.90
27164;DHT22;14685;50.618;7.024;2023-12-28T03:25:53;10.20;99.90
27164;DHT22;14685;50.618;7.024;2023-12-28T03:28:22;10.30;99.90
27164;DHT22;14685;50.618;7.024;2023-12-28T03:30:49;10.30;99.90
27164;DHT22;14685;50.618;7.024;2023-12-28T03:33:16;10.30;99.90
27164;DHT22;14685;50.618;7.024;2023-12-28T03:35:43;10.40;99.90
27164;DHT22;14685;50.618;7.024;2023-12-28T03:38:09;10.40;99.90
27164;DHT22;14685;50.618;7.024;2023-12-28T03:40:38;10.50;99.90
27164;DHT22;14685;50.618;7.024;2023-12-28T03:43:04;10.50;99.90
27164;DHT22;14685;50.618;7.024;2023-12-28T03:45:31;10.50;99.90
27164;DHT22;14685;50.618;7.024;2023-12-28T03:48:00;10.60;99.90
27164;DHT22;14685;50.618;7.024;2023-12-28T03:50:27;10.60;99.90
27164;DHT22;14685;50.618;7.024;2023-12-28T03:52:54;10.60;99.90
27164;DHT22;14685;50.618;7.024;2023-12-28T03:55:21;10.70;99.90
27164;DHT22;14685;50.618;7.024;2023-12-28T03:57:48;10.60;99.90
27164;DHT22;14685;50.618;7.024;2023-12-28T04:00:15;10.60;99.90
27164;DHT22;14685;50.618;7.024;2023-12-28T04:02:43;10.70;99.90
27164;DHT22;14685;50.618;7.024;2023-12-28T04:05:10;10.60;99.90
27164;DHT22;14685;50.618;7.024;2023-12-28T04:07:37;10.60;99.90
27164;DHT22;14685;50.618;7.024;2023-12-28T04:10:05;10.60;99.90
27164;DHT22;14685;50.618;7.024;2023-12-28T04:12:31;10.60;99.90
27164;DHT22;14685;50.618;7.024;2023-12-28T04:14:59;10.50;99.90
27164;DHT22;14685;50.618;7.024;2023-12-28T04:17:26;10.50;99.90
27164;DHT22;14685;50.618;7.024;2023-12-28T04:19:53;10.40;99.90
27164;DHT22;14685;50.618;7.024;2023-12-28T04:22:20;10.40;99.90
27164;DHT22;14685;50.618;7.024;2023-12-28T04:24:47;10.40;99.90
27164;DHT22;14685;50.618;7.024;2023-12-28T04:27:14;10.40;99.90
27164;DHT22;14685;50.618;7.024;2023-12-28T04:29:41;10.40;99.90
27164;DHT22;14685;50.618;7.024;2023-12-28T04:32:07;10.40;99.90
27164;DHT22;14685;50.618;7.024;2023-12-28T04:34:35;10.40;99.90
27164;DHT22;14685;50.618;7.024;2023-12-28T04:37:02;10.40;99.90
27164;DHT22;14685;50.618;7.024;2023-12-28T04:39:30;10.50;99.90
27164;DHT22;14685;50.618;7.024;2023-12-28T04:41:57;10.50;99.90
27164;DHT22;14685;50.618;7.024;2023-12-28T04:44:26;10.50;99.90
27164;DHT22;14685;50.618;7.024;2023-12-28T04:46:54;10.50;99.90
27164;DHT22;14685;50.618;7.024;2023-12-28T04:49:24;10.50;99.90
27164;DHT22;14685;50.618;7.024;2023-12-28T04:51:51;10.50;99.90
27164;DHT22;14685;50.618;7.024;2023-12-28T04:54:18;10.50;99.90
27164;DHT22;14685;50.618;7.024;2023-12-28T04:56:46;10.50;99.90
27164;DHT22;14685;50.618;7.024;2023-12-28T04:59:13;10.50;99.90
27164;DHT22;14685;50.618;7.024;2023-12-28T05:01:46;10.40;99.90
27164;DHT22;14685;50.618;7.024;2023-12-28T05:04:13;10.40;99.90
27164;DHT22;14685;50.618;7.024;2023-12-28T05:06:43;10.40;99.90
27164;DHT22;14685;50.618;7.024;2023-12-28T05:09:10;10.40;99.90
27164;DHT22;14685;50.618;7.024;2023-12-28T05:11:37;10.40;99.90
27164;DHT22;14685;50.618;7.024;2023-12-28T05:14:04;10.40;99.90
27164;DHT22;14685;50.618;7.024;2023-12-28T05:16:36;10.40;99.90
27164;DHT22;14685;50.618;7.024;2023-12-28T05:19:03;10.40;99.90
27164;DHT22;14685;50.618;7.024;2023-12-28T05:21:42;10.40;99.90
27164;DHT22;14685;50.618;7.024;2023-12-28T05:24:10;10.50;99.90
27164;DHT22;14685;50.618;7.024;2023-12-28T05:26:37;10.50;99.90
27164;DHT22;14685;50.618;7.024;2023-12-28T05:29:04;10.50;99.90
27164;DHT22;14685;50.618;7.024;2023-12-28T05:31:31;10.50;99.90
27164;DHT22;14685;50.618;7.024;2023-12-28T05:33:58;10.50;99.90
27164;DHT22;14685;50.618;7.024;2023-12-28T05:36:25;10.50;99.90
27164;DHT22;14685;50.618;7.024;2023-12-28T05:38:53;10.60;99.90
27164;DHT22;14685;50.618;7.024;2023-12-28T05:41:22;10.60;99.90
27164;DHT22;14685;50.618;7.024;2023-12-28T05:43:49;10.70;99.90
27164;DHT22;14685;50.618;7.024;2023-12-28T05:46:16;10.70;99.90
27164;DHT22;14685;50.618;7.024;2023-12-28T05:48:44;10.70;99.90
27164;DHT22;14685;50.618;7.024;2023-12-28T05:51:13;10.70;99.90
27164;DHT22;14685;50.618;7.024;2023-12-28T05:53:40;10.70;99.90
27164;DHT22;14685;50.618;7.024;2023-12-28T05:56:11;10.70;99.90
27164;DHT22;14685;50.618;7.024;2023-12-28T05:58:38;10.70;99.90
27164;DHT22;14685;50.618;7.024;2023-12-28T06:01:08;10.60;99.90
27164;DHT22;14685;50.618;7.024;2023-12-28T06:03:36;10.70;99.90
27164;DHT22;14685;50.618;7.024;2023-12-28T06:06:03;10.70;99.90
27164;DHT22;14685;50.618;7.024;2023-12-28T06:08:30;10.70;99.90
27164;DHT22;14685;50.618;7.024;2023-12-28T06:10:57;10.80;99.90
27164;DHT22;14685;50.618;7.024;2023-12-28T06:13:24;10.90;99.90
27164;DHT22;14685;50.618;7.024;2023-12-28T06:15:51;10.90;99.90
27164;DHT22;14685;50.618;7.024;2023-12-28T06:18:18;10.90;99.90
27164;DHT22;14685;50.618;7.024;2023-12-28T06:20:46;11.00;99.90
27164;DHT22;14685;50.618;7.024;2023-12-28T06:23:13;11.00;99.90
27164;DHT22;14685;50.618;7.024;2023-12-28T06:25:40;11.10;99.90
27164;DHT22;14685;50.618;7.024;2023-12-28T06:28:07;11.10;99.90
27164;DHT22;14685;50.618;7.024;2023-12-28T06:30:36;11.10;99.90
27164;DHT22;14685;50.618;7.024;2023-12-28T06:33:03;11.20;99.90
27164;DHT22;14685;50.618;7.024;2023-12-28T06:35:32;11.20;99.90
27164;DHT22;14685;50.618;7.024;2023-12-28T06:37:59;11.20;99.90
27164;DHT22;14685;50.618;7.024;2023-12-28T06:40:29;11.20;99.90
27164;DHT22;14685;50.618;7.024;2023-12-28T06:42:55;11.20;99.90
27164;DHT22;14685;50.618;7.024;2023-12-28T06:45:22;11.20;99.90
27164;DHT22;14685;50.618;7.024;2023-12-28T06:47:55;11.10;99.90
27164;DHT22;14685;50.618;7.024;2023-12-28T06:50:23;11.10;99.90
27164;DHT22;14685;50.618;7.024;2023-12-28T06:52:49;11.00;99.90
27164;DHT22;14685;50.618;7.024;2023-12-28T06:55:17;11.00;99.90
27164;DHT22;14685;50.618;7.024;2023-12-28T06:57:44;11.00;99.90
27164;DHT22;14685;50.618;7.024;2023-12-28T07:00:11;10.90;99.90
27164;DHT22;14685;50.618;7.024;2023-12-28T07:02:38;10.90;99.90
27164;DHT22;14685;50.618;7.024;2023-12-28T07:05:05;10.80;99.90
27164;DHT22;14685;50.618;7.024;2023-12-28T07:07:32;10.80;99.90
27164;DHT22;14685;50.618;7.024;2023-12-28T07:09:59;10.80;99.90
27164;DHT22;14685;50.618;7.024;2023-12-28T07:12:26;10.90;99.90
27164;DHT22;14685;50.618;7.024;2023-12-28T07:14:55;10.90;99.90
27164;DHT22;14685;50.618;7.024;2023-12-28T07:17:22;10.90;99.90
27164;DHT22;14685;50.618;7.024;2023-12-28T07:19:49;10.90;99.90
27164;DHT22;14685;50.618;7.024;2023-12-28T07:22:16;10.90;99.90
27164;DHT22;14685;50.618;7.024;2023-12-28T07:24:44;11.00;99.90
27164;DHT22;14685;50.618;7.024;2023-12-28T07:27:12;10.90;99.90
27164;DHT22;14685;50.618;7.024;2023-12-28T07:29:39;10.90;99.90
27164;DHT22;14685;50.618;7.024;2023-12-28T07:32:06;10.90;99.90
27164;DHT22;14685;50.618;7.024;2023-12-28T07:34:35;10.90;99.90
27164;DHT22;14685;50.618;7.024;2023-12-28T07:37:03;10.90;99.90
27164;DHT22;14685;50.618;7.024;2023-12-28T07:39:31;10.90;99.90
27164;DHT22;14685;50.618;7.024;2023-12-28T07:41:58;10.80;99.90
27164;DHT22;14685;50.618;7.024;2023-12-28T07:44:25;10.80;99.90
27164;DHT22;14685;50.618;7.024;2023-12-28T07:46:53;10.90;99.90
27164;DHT22;14685;50.618;7.024;2023-12-28T07:49:21;10.90;99.90
27164;DHT22;14685;50.618;7.024;2023-12-28T07:51:48;10.90;99.90
27164;DHT22;14685;50.618;7.024;2023-12-28T07:54:15;10.90;99.90
27164;DHT22;14685;50.618;7.024;2023-12-28T07:56:42;10.80;99.90
27164;DHT22;14685;50.618;7.024;2023-12-28T07:59:09;10.80;99.90
27164;DHT22;14685;50.618;7.024;2023-12-28T08:01:36;10.90;99.90
27164;DHT22;14685;50.618;7.024;2023-12-28T08:04:03;10.90;99.90
27164;DHT22;14685;50.618;7.024;2023-12-28T08:06:32;10.90;99.90
27164;DHT22;14685;50.618;7.024;2023-12-28T08:09:00;10.90;99.90
27164;DHT22;14685;50.618;7.024;2023-12-28T08:11:29;11.00;99.90
27164;DHT22;14685;50.618;7.024;2023-12-28T08:13:57;11.10;99.90
27164;DHT22;14685;50.618;7.024;2023-12-28T08:16:24;11.10;99.90
27164;DHT22;14685;50.618;7.024;2023-12-28T08:18:53;11.10;99.90
27164;DHT22;14685;50.618;7.024;2023-12-28T08:21:20;11.10;99.90
27164;DHT22;14685;50.618;7.024;2023-12-28T08:23:47;11.10;99.90
27164;DHT22;14685;50.618;7.024;2023-12-28T08:26:13;11.00;99.90
27164;DHT22;14685;50.618;7.024;2023-12-28T08:28:41;11.10;99.90
27164;DHT22;14685;50.618;7.024;2023-12-28T08:31:09;11.00;99.90
27164;DHT22;14685;50.618;7.024;2023-12-28T08:33:36;11.00;99.90
27164;DHT22;14685;50.618;7.024;2023-12-28T08:36:09;10.90;99.90
27164;DHT22;14685;50.618;7.024;2023-12-28T08:38:36;10.90;99.90
27164;DHT22;14685;50.618;7.024;2023-12-28T08:41:03;10.90;99.90
27164;DHT22;14685;50.618;7.024;2023-12-28T08:43:36;10.90;99.90
27164;DHT22;14685;50.618;7.024;2023-12-28T08:46:03;10.90;99.90
27164;DHT22;14685;50.618;7.024;2023-12-28T08:48:30;10.90;99.90
27164;DHT22;14685;50.618;7.024;2023-12-28T08:50:57;11.00;99.90
27164;DHT22;14685;50.618;7.024;2023-12-28T08:53:24;11.10;99.90
27164;DHT22;14685;50.618;7.024;2023-12-28T08:55:51;11.20;99.90
27164;DHT22;14685;50.618;7.024;2023-12-28T08:58:18;11.30;99.90
27164;DHT22;14685;50.618;7.024;2023-12-28T09:00:45;11.40;99.90
27164;DHT22;14685;50.618;7.024;2023-12-28T09:03:14;11.50;99.90
27164;DHT22;14685;50.618;7.024;2023-12-28T09:05:41;11.60;99.90
27164;DHT22;14685;50.618;7.024;2023-12-28T09:08:08;11.70;99.90
27164;DHT22;14685;50.618;7.024;2023-12-28T09:10:35;11.80;99.90
27164;DHT22;14685;50.618;7.024;2023-12-28T09:13:04;11.80;99.90
27164;DHT22;14685;50.618;7.024;2023-12-28T09:15:32;11.90;99.90
27164;DHT22;14685;50.618;7.024;2023-12-28T09:18:00;12.00;99.90
27164;DHT22;14685;50.618;7.024;2023-12-28T09:24:15;12.10;99.90
27164;DHT22;14685;50.618;7.024;2023-12-28T09:26:45;12.20;99.90
27164;DHT22;14685;50.618;7.024;2023-12-28T09:29:12;12.20;99.90
27164;DHT22;14685;50.618;7.024;2023-12-28T09:31:40;12.20;99.90
27164;DHT22;14685;50.618;7.024;2023-12-28T09:34:07;12.30;99.90
27164;DHT22;14685;50.618;7.024;2023-12-28T09:36:34;12.40;99.90
27164;DHT22;14685;50.618;7.024;2023-12-28T09:39:03;12.40;99.90
27164;DHT22;14685;50.618;7.024;2023-12-28T09:41:34;12.50;99.90
27164;DHT22;14685;50.618;7.024;2023-12-28T09:44:12;12.60;99.90
27164;DHT22;14685;50.618;7.024;2023-12-28T09:46:42;12.60;99.90
27164;DHT22;14685;50.618;7.024;2023-12-28T09:49:11;12.70;99.90
27164;DHT22;14685;50.618;7.024;2023-12-28T09:51:38;12.70;99.90
27164;DHT22;14685;50.618;7.024;2023-12-28T09:54:06;12.70;99.90
27164;DHT22;14685;50.618;7.024;2023-12-28T09:56:36;12.80;99.90
27164;DHT22;14685;50.618;7.024;2023-12-28T09:59:04;12.80;99.90
27164;DHT22;14685;50.618;7.024;2023-12-28T10:01:33;12.80;99.90
27164;DHT22;14685;50.618;7.024;2023-12-28T10:04:01;12.80;99.90
27164;DHT22;14685;50.618;7.024;2023-12-28T10:06:30;12.80;99.90
27164;DHT22;14685;50.618;7.024;2023-12-28T10:08:57;12.80;99.90
27164;DHT22;14685;50.618;7.024;2023-12-28T10:11:24;12.80;99.90
27164;DHT22;14685;50.618;7.024;2023-12-28T10:13:53;12.90;99.90
27164;DHT22;14685;50.618;7.024;2023-12-28T10:16:20;12.80;99.90
27164;DHT22;14685;50.618;7.024;2023-12-28T10:18:47;12.80;99.90
27164;DHT22;14685;50.618;7.024;2023-12-28T10:21:15;12.80;99.90
27164;DHT22;14685;50.618;7.024;2023-12-28T10:23:42;12.80;99.90
27164;DHT22;14685;50.618;7.024;2023-12-28T10:26:09;12.80;99.90
27164;DHT22;14685;50.618;7.024;2023-12-28T10:28:37;12.80;99.90
27164;DHT22;14685;50.618;7.024;2023-12-28T10:31:05;12.80;99.90
27164;DHT22;14685;50.618;7.024;2023-12-28T10:33:36;12.80;99.90
27164;DHT22;14685;50.618;7.024;2023-12-28T10:36:06;12.80;99.90
27164;DHT22;14685;50.618;7.024;2023-12-28T10:38:36;12.80;99.90
27164;DHT22;14685;50.618;7.024;2023-12-28T10:41:13;12.80;99.90
27164;DHT22;14685;50.618;7.024;2023-12-28T10:43:46;12.90;99.90
27164;DHT22;14685;50.618;7.024;2023-12-28T10:46:26;12.90;99.90
27164;DHT22;14685;50.618;7.024;2023-12-28T10:49:11;12.80;99.90
27164;DHT22;14685;50.618;7.024;2023-12-28T10:51:41;12.80;99.90
27164;DHT22;14685;50.618;7.024;2023-12-28T10:57:22;12.80;99.90
27164;DHT22;14685;50.618;7.024;2023-12-28T11:02:38;12.80;99.90
27164;DHT22;14685;50.618;7.024;2023-12-28T11:05:07;12.70;99.90
27164;DHT22;14685;50.618;7.024;2023-12-28T11:07:36;12.70;99.90
27164;DHT22;14685;50.618;7.024;2023-12-28T11:10:05;12.70;99.90
27164;DHT22;14685;50.618;7.024;2023-12-28T11:12:35;12.70;99.90
27164;DHT22;14685;50.618;7.024;2023-12-28T11:15:02;12.70;99.90
27164;DHT22;14685;50.618;7.024;2023-12-28T11:17:36;12.70;99.90
27164;DHT22;14685;50.618;7.024;2023-12-28T11:20:04;12.70;99.90
27164;DHT22;14685;50.618;7.024;2023-12-28T11:22:33;12.70;99.90
27164;DHT22;14685;50.618;7.024;2023-12-28T11:25:01;12.70;99.90
27164;DHT22;14685;50.618;7.024;2023-12-28T11:27:34;12.60;99.90
27164;DHT22;14685;50.618;7.024;2023-12-28T11:30:05;12.60;99.90
27164;DHT22;14685;50.618;7.024;2023-12-28T11:32:42;12.60;99.90
27164;DHT22;14685;50.618;7.024;2023-12-28T11:35:13;12.60;99.90
27164;DHT22;14685;50.618;7.024;2023-12-28T11:37:46;12.60;99.90
27164;DHT22;14685;50.618;7.024;2023-12-28T11:40:18;12.60;99.90
27164;DHT22;14685;50.618;7.024;2023-12-28T11:42:52;12.60;99.90
27164;DHT22;14685;50.618;7.024;2023-12-28T11:45:23;12.50;99.90
27164;DHT22;14685;50.618;7.024;2023-12-28T11:48:02;12.60;99.90
27164;DHT22;14685;50.618;7.024;2023-12-28T11:50:32;12.60;99.90
27164;DHT22;14685;50.618;7.024;2023-12-28T11:52:59;12.60;99.90
27164;DHT22;14685;50.618;7.024;2023-12-28T11:55:26;12.60;99.90
27164;DHT22;14685;50.618;7.024;2023-12-28T11:57:53;12.60;99.90
27164;DHT22;14685;50.618;7.024;2023-12-28T12:00:23;12.60;99.90
27164;DHT22;14685;50.618;7.024;2023-12-28T12:02:52;12.60;99.90
27164;DHT22;14685;50.618;7.024;2023-12-28T12:05:20;12.60;99.90
27164;DHT22;14685;50.618;7.024;2023-12-28T12:07:49;12.60;99.90
27164;DHT22;14685;50.618;7.024;2023-12-28T12:10:16;12.60;99.90
27164;DHT22;14685;50.618;7.024;2023-12-28T12:12:44;12.60;99.90
27164;DHT22;14685;50.618;7.024;2023-12-28T12:15:11;12.60;99.90
27164;DHT22;14685;50.618;7.024;2023-12-28T12:17:39;12.60;99.90
27164;DHT22;14685;50.618;7.024;2023-12-28T12:20:08;12.60;99.90
27164;DHT22;14685;50.618;7.024;2023-12-28T12:22:36;12.60;99.90
27164;DHT22;14685;50.618;7.024;2023-12-28T12:25:05;12.70;99.90
27164;DHT22;14685;50.618;7.024;2023-12-28T12:27:32;12.60;99.90
27164;DHT22;14685;50.618;7.024;2023-12-28T12:29:59;12.60;99.90
27164;DHT22;14685;50.618;7.024;2023-12-28T12:32:27;12.60;99.90
27164;DHT22;14685;50.618;7.024;2023-12-28T12:34:55;12.70;99.90
27164;DHT22;14685;50.618;7.024;2023-12-28T12:37:22;12.60;99.90
27164;DHT22;14685;50.618;7.024;2023-12-28T12:39:50;12.50;99.90
27164;DHT22;14685;50.618;7.024;2023-12-28T12:42:17;12.60;99.90
27164;DHT22;14685;50.618;7.024;2023-12-28T12:44:44;12.60;99.90
27164;DHT22;14685;50.618;7.024;2023-12-28T12:47:13;12.60;99.90
27164;DHT22;14685;50.618;7.024;2023-12-28T12:49:40;12.60;99.90
27164;DHT22;14685;50.618;7.024;2023-12-28T12:52:10;12.60;99.90
27164;DHT22;14685;50.618;7.024;2023-12-28T12:54:37;12.70;99.90
27164;DHT22;14685;50.618;7.024;2023-12-28T12:57:05;12.60;99.90
27164;DHT22;14685;50.618;7.024;2023-12-28T12:59:32;12.60;99.90
27164;DHT22;14685;50.618;7.024;2023-12-28T13:02:00;12.60;99.90
27164;DHT22;14685;50.618;7.024;2023-12-28T13:04:27;12.60;99.90
27164;DHT22;14685;50.618;7.024;2023-12-28T13:06:54;12.60;99.90
27164;DHT22;14685;50.618;7.024;2023-12-28T13:09:21;12.60;99.90
27164;DHT22;14685;50.618;7.024;2023-12-28T13:11:50;12.60;99.90
27164;DHT22;14685;50.618;7.024;2023-12-28T13:14:18;12.60;99.90
27164;DHT22;14685;50.618;7.024;2023-12-28T13:16:47;12.60;99.90
27164;DHT22;14685;50.618;7.024;2023-12-28T13:19:24;12.60;99.90
27164;DHT22;14685;50.618;7.024;2023-12-28T13:21:51;12.50;99.90
27164;DHT22;14685;50.618;7.024;2023-12-28T13:24:19;12.50;99.90
27164;DHT22;14685;50.618;7.024;2023-12-28T13:26:47;12.60;99.90
27164;DHT22;14685;50.618;7.024;2023-12-28T13:29:14;12.60;99.90
27164;DHT22;14685;50.618;7.024;2023-12-28T13:31:41;12.50;99.90
27164;DHT22;14685;50.618;7.024;2023-12-28T13:34:08;12.60;99.90
27164;DHT22;14685;50.618;7.024;2023-12-28T13:36:35;12.50;99.90
27164;DHT22;14685;50.618;7.024;2023-12-28T13:39:02;12.60;99.90
27164;DHT22;14685;50.618;7.024;2023-12-28T13:41:30;12.60;99.90
27164;DHT22;14685;50.618;7.024;2023-12-28T13:43:58;12.60;99.90
27164;DHT22;14685;50.618;7.024;2023-12-28T13:46:30;12.60;99.90
27164;DHT22;14685;50.618;7.024;2023-12-28T13:48:57;12.60;99.90
27164;DHT22;14685;50.618;7.024;2023-12-28T13:51:25;12.60;99.90
27164;DHT22;14685;50.618;7.024;2023-12-28T13:53:52;12.50;99.90
27164;DHT22;14685;50.618;7.024;2023-12-28T13:56:20;12.60;99.90
27164;DHT22;14685;50.618;7.024;2023-12-28T13:58:47;12.50;99.90
27164;DHT22;14685;50.618;7.024;2023-12-28T14:01:14;12.50;99.90
27164;DHT22;14685;50.618;7.024;2023-12-28T14:03:41;12.60;99.90
27164;DHT22;14685;50.618;7.024;2023-12-28T14:06:08;12.50;99.90
27164;DHT22;14685;50.618;7.024;2023-12-28T14:08:35;12.60;99.90
27164;DHT22;14685;50.618;7.024;2023-12-28T14:11:04;12.50;99.90
27164;DHT22;14685;50.618;7.024;2023-12-28T14:13:33;12.50;99.90
27164;DHT22;14685;50.618;7.024;2023-12-28T14:16:03;12.50;99.90
27164;DHT22;14685;50.618;7.024;2023-12-28T14:18:30;12.50;99.90
27164;DHT22;14685;50.618;7.024;2023-12-28T14:20:58;12.40;99.90
27164;DHT22;14685;50.618;7.024;2023-12-28T14:23:28;12.40;99.90
27164;DHT22;14685;50.618;7.024;2023-12-28T14:25:57;12.40;99.90
27164;DHT22;14685;50.618;7.024;2023-12-28T14:28:24;12.40;99.90
27164;DHT22;14685;50.618;7.024;2023-12-28T14:30:53;12.30;99.90
27164;DHT22;14685;50.618;7.024;2023-12-28T14:33:20;12.30;99.90
27164;DHT22;14685;50.618;7.024;2023-12-28T14:35:49;12.30;99.90
27164;DHT22;14685;50.618;7.024;2023-12-28T14:38:16;12.30;99.90
27164;DHT22;14685;50.618;7.024;2023-12-28T14:40:43;12.30;99.90
27164;DHT22;14685;50.618;7.024;2023-12-28T14:43:11;12.30;99.90
27164;DHT22;14685;50.618;7.024;2023-12-28T14:45:39;12.40;99.90
27164;DHT22;14685;50.618;7.024;2023-12-28T14:48:07;12.30;99.90
27164;DHT22;14685;50.618;7.024;2023-12-28T14:50:34;12.30;99.90
27164;DHT22;14685;50.618;7.024;2023-12-28T14:53:03;12.30;99.90
27164;DHT22;14685;50.618;7.024;2023-12-28T14:55:31;12.30;99.90
27164;DHT22;14685;50.618;7.024;2023-12-28T14:57:57;12.30;99.90
27164;DHT22;14685;50.618;7.024;2023-12-28T15:00:27;12.20;99.90
27164;DHT22;14685;50.618;7.024;2023-12-28T15:02:54;12.30;99.90
27164;DHT22;14685;50.618;7.024;2023-12-28T15:05:21;12.30;99.90
27164;DHT22;14685;50.618;7.024;2023-12-28T15:07:48;12.30;99.90
27164;DHT22;14685;50.618;7.024;2023-12-28T15:10:16;12.30;99.90
27164;DHT22;14685;50.618;7.024;2023-12-28T15:12:43;12.30;99.90
27164;DHT22;14685;50.618;7.024;2023-12-28T15:15:11;12.30;99.90
27164;DHT22;14685;50.618;7.024;2023-12-28T15:17:39;12.30;99.90
27164;DHT22;14685;50.618;7.024;2023-12-28T15:20:07;12.30;99.90
27164;DHT22;14685;50.618;7.024;2023-12-28T15:22:35;12.30;99.90
27164;DHT22;14685;50.618;7.024;2023-12-28T15:25:03;12.30;99.90
27164;DHT22;14685;50.618;7.024;2023-12-28T15:27:33;12.30;99.90
27164;DHT22;14685;50.618;7.024;2023-12-28T15:30:01;12.30;99.90
27164;DHT22;14685;50.618;7.024;2023-12-28T15:32:29;12.30;99.90
27164;DHT22;14685;50.618;7.024;2023-12-28T15:34:56;12.30;99.90
27164;DHT22;14685;50.618;7.024;2023-12-28T15:37:24;12.20;99.90
27164;DHT22;14685;50.618;7.024;2023-12-28T15:39:52;12.20;99.90
27164;DHT22;14685;50.618;7.024;2023-12-28T15:42:19;12.20;99.90
27164;DHT22;14685;50.618;7.024;2023-12-28T15:44:45;12.10;99.90
27164;DHT22;14685;50.618;7.024;2023-12-28T15:47:13;12.10;99.90